sensor_id;sensor_type;location;lat;lon;timestamp;temperature;humidity
2158;DHT22;41972;48.774;9.282;2022-08-19T00:01:57;21.10;99.90
2158;DHT22;41972;48.774;9.282;2022-08-19T00:04:27;21.10;99.90
2158;DHT22;41972;48.774;9.282;2022-08-19T00:06:54;21.10;99.90
2158;DHT22;41972;48.774;9.282;2022-08-19T00:09:21;21.10;99.90
2158;DHT22;41972;48.774;9.282;2022-08-19T00:11:47;21.10;99.90
2158;DHT22;41972;48.774;9.282;2022-08-19T00:14:15;21.10;99.90
2158;DHT22;41972;48.774;9.282;2022-08-19T00:16:43;21.40;99.90
2158;DHT22;41972;48.774;9.282;2022-08-19T00:19:09;21.10;99.90
2158;DHT22;41972;48.774;9.282;2022-08-19T00:21:35;21.00;99.90
2158;DHT22;41972;48.774;9.282;2022-08-19T00:24:06;20.90;99.90
2158;DHT22;41972;48.774;9.282;2022-08-19T00:26:32;20.80;99.90
2158;DHT22;41972;48.774;9.282;2022-08-19T00:28:57;20.70;99.90
2158;DHT22;41972;48.774;9.282;2022-08-19T00:31:23;20.80;99.90
2158;DHT22;41972;48.774;9.282;2022-08-19T00:33:50;20.60;99.90
2158;DHT22;41972;48.774;9.282;2022-08-19T00:36:16;20.70;99.90
2158;DHT22;41972;48.774;9.282;2022-08-19T00:38:41;20.50;99.90
2158;DHT22;41972;48.774;9.282;2022-08-19T00:41:15;20.50;99.90
2158;DHT22;41972;48.774;9.282;2022-08-19T00:43:41;20.50;99.90
2158;DHT22;41972;48.774;9.282;2022-08-19T00:46:07;20.50;99.90
2158;DHT22;41972;48.774;9.282;2022-08-19T00:48:34;20.40;99.90
2158;DHT22;41972;48.774;9.282;2022-08-19T00:51:01;20.50;99.90
2158;DHT22;41972;48.774;9.282;2022-08-19T00:53:28;20.50;99.90
2158;DHT22;41972;48.774;9.282;2022-08-19T00:55:56;20.50;99.90
2158;DHT22;41972;48.774;9.282;2022-08-19T00:58:27;20.60;99.90
2158;DHT22;41972;48.774;9.282;2022-08-19T01:00:54;20.50;99.90
2158;DHT22;41972;48.774;9.282;2022-08-19T01:03:21;20.40;99.90
2158;DHT22;41972;48.774;9.282;2022-08-19T01:05:48;20.40;99.90
2158;DHT22;41972;48.774;9.282;2022-08-19T01:08:16;20.50;99.90
2158;DHT22;41972;48.774;9.282;2022-08-19T01:11:02;20.50;99.90
2158;DHT22;41972;48.774;9.282;2022-08-19T01:13:32;20.50;99.90
2158;DHT22;41972;48.774;9.282;2022-08-19T01:16:03;20.40;99.90
2158;DHT22;41972;48.774;9.282;2022-08-19T01:18:31;20.50;99.90
2158;DHT22;41972;48.774;9.282;2022-08-19T01:23:40;20.50;99.90
2158;DHT22;41972;48.774;9.282;2022-08-19T01:26:21;20.50;99.90
2158;DHT22;41972;48.774;9.282;2022-08-19T01:28:50;20.50;99.90
2158;DHT22;41972;48.774;9.282;2022-08-19T01:31:21;20.50;99.90
2158;DHT22;41972;48.774;9.282;2022-08-19T01:33:49;20.50;99.90
2158;DHT22;41972;48.774;9.282;2022-08-19T01:36:23;20.40;99.90
2158;DHT22;41972;48.774;9.282;2022-08-19T01:38:50;20.50;99.90
2158;DHT22;41972;48.774;9.282;2022-08-19T01:41:18;20.50;99.90
2158;DHT22;41972;48.774;9.282;2022-08-19T01:43:44;20.40;99.90
2158;DHT22;41972;48.774;9.282;2022-08-19T01:46:10;20.40;99.90
2158;DHT22;41972;48.774;9.282;2022-08-19T01:48:39;20.40;99.90
2158;DHT22;41972;48.774;9.282;2022-08-19T01:51:06;20.40;99.90
2158;DHT22;41972;48.774;9.282;2022-08-19T01:53:32;20.40;99.90
2158;DHT22;41972;48.774;9.282;2022-08-19T01:55:58;20.40;99.90
2158;DHT22;41972;48.774;9.282;2022-08-19T01:58:28;20.30;99.90
2158;DHT22;41972;48.774;9.282;2022-08-19T02:00:56;20.30;99.90
2158;DHT22;41972;48.774;9.282;2022-08-19T02:03:21;20.30;99.90
2158;DHT22;41972;48.774;9.282;2022-08-19T02:05:52;20.20;99.90
2158;DHT22;41972;48.774;9.282;2022-08-19T02:08:18;20.20;99.90
2158;DHT22;41972;48.774;9.282;2022-08-19T02:10:44;20.20;99.90
2158;DHT22;41972;48.774;9.282;2022-08-19T02:13:12;20.20;99.90
2158;DHT22;41972;48.774;9.282;2022-08-19T02:15:38;20.50;99.90
2158;DHT22;41972;48.774;9.282;2022-08-19T02:18:06;20.20;99.90
2158;DHT22;41972;48.774;9.282;2022-08-19T02:20:32;20.20;99.90
2158;DHT22;41972;48.774;9.282;2022-08-19T02:22:58;20.10;99.90
2158;DHT22;41972;48.774;9.282;2022-08-19T02:25:23;20.10;99.90
2158;DHT22;41972;48.774;9.282;2022-08-19T02:27:49;20.00;99.90
2158;DHT22;41972;48.774;9.282;2022-08-19T02:30:17;20.00;99.90
2158;DHT22;41972;48.774;9.282;2022-08-19T02:32:43;20.00;99.90
2158;DHT22;41972;48.774;9.282;2022-08-19T02:35:09;20.00;99.90
2158;DHT22;41972;48.774;9.282;2022-08-19T02:37:35;20.10;99.90
2158;DHT22;41972;48.774;9.282;2022-08-19T02:40:19;20.00;99.90
2158;DHT22;41972;48.774;9.282;2022-08-19T02:42:45;19.90;99.90
2158;DHT22;41972;48.774;9.282;2022-08-19T02:45:12;19.90;99.90
2158;DHT22;41972;48.774;9.282;2022-08-19T02:47:38;19.90;99.90
2158;DHT22;41972;48.774;9.282;2022-08-19T02:50:05;19.90;99.90
2158;DHT22;41972;48.774;9.282;2022-08-19T02:52:32;19.80;99.90
2158;DHT22;41972;48.774;9.282;2022-08-19T02:54:58;19.90;99.90
2158;DHT22;41972;48.774;9.282;2022-08-19T02:57:24;19.80;99.90
2158;DHT22;41972;48.774;9.282;2022-08-19T02:59:50;19.80;99.90
2158;DHT22;41972;48.774;9.282;2022-08-19T03:02:15;19.80;99.90
2158;DHT22;41972;48.774;9.282;2022-08-19T03:04:41;19.80;99.90
2158;DHT22;41972;48.774;9.282;2022-08-19T03:07:08;19.70;99.90
2158;DHT22;41972;48.774;9.282;2022-08-19T03:09:36;19.70;99.90
2158;DHT22;41972;48.774;9.282;2022-08-19T03:12:03;19.70;99.90
2158;DHT22;41972;48.774;9.282;2022-08-19T03:14:31;19.70;99.90
2158;DHT22;41972;48.774;9.282;2022-08-19T03:16:57;19.80;99.90
2158;DHT22;41972;48.774;9.282;2022-08-19T03:19:23;19.70;99.90
2158;DHT22;41972;48.774;9.282;2022-08-19T03:21:49;19.70;99.90
2158;DHT22;41972;48.774;9.282;2022-08-19T03:24:15;19.60;99.90
2158;DHT22;41972;48.774;9.282;2022-08-19T03:26:47;19.70;99.90
2158;DHT22;41972;48.774;9.282;2022-08-19T03:29:13;19.60;99.90
2158;DHT22;41972;48.774;9.282;2022-08-19T03:31:40;19.70;99.90
2158;DHT22;41972;48.774;9.282;2022-08-19T03:34:06;19.70;99.90
2158;DHT22;41972;48.774;9.282;2022-08-19T03:36:32;19.60;99.90
2158;DHT22;41972;48.774;9.282;2022-08-19T03:38:59;19.60;99.90
2158;DHT22;41972;48.774;9.282;2022-08-19T03:41:31;19.50;99.90
2158;DHT22;41972;48.774;9.282;2022-08-19T03:43:58;19.30;99.90
2158;DHT22;41972;48.774;9.282;2022-08-19T03:46:25;19.40;99.90
2158;DHT22;41972;48.774;9.282;2022-08-19T03:48:55;19.80;99.90
2158;DHT22;41972;48.774;9.282;2022-08-19T03:51:26;19.50;99.90
2158;DHT22;41972;48.774;9.282;2022-08-19T03:53:54;19.50;99.90
2158;DHT22;41972;48.774;9.282;2022-08-19T03:56:21;19.50;99.90
2158;DHT22;41972;48.774;9.282;2022-08-19T03:58:46;19.40;99.90
2158;DHT22;41972;48.774;9.282;2022-08-19T04:01:16;19.30;99.90
2158;DHT22;41972;48.774;9.282;2022-08-19T04:03:41;19.40;99.90
2158;DHT22;41972;48.774;9.282;2022-08-19T04:06:15;19.40;99.90
2158;DHT22;41972;48.774;9.282;2022-08-19T04:08:43;19.40;99.90
2158;DHT22;41972;48.774;9.282;2022-08-19T04:11:10;19.50;99.90
2158;DHT22;41972;48.774;9.282;2022-08-19T04:13:37;20.10;99.90
2158;DHT22;41972;48.774;9.282;2022-08-19T04:16:03;19.40;99.90
2158;DHT22;41972;48.774;9.282;2022-08-19T04:18:29;19.40;99.90
2158;DHT22;41972;48.774;9.282;2022-08-19T04:20:55;19.30;99.90
2158;DHT22;41972;48.774;9.282;2022-08-19T04:23:22;19.30;99.90
2158;DHT22;41972;48.774;9.282;2022-08-19T04:25:48;19.40;99.90
2158;DHT22;41972;48.774;9.282;2022-08-19T04:28:14;19.40;99.90
2158;DHT22;41972;48.774;9.282;2022-08-19T04:30:42;19.40;99.90
2158;DHT22;41972;48.774;9.282;2022-08-19T04:33:09;19.30;99.90
2158;DHT22;41972;48.774;9.282;2022-08-19T04:35:46;19.30;99.90
2158;DHT22;41972;48.774;9.282;2022-08-19T04:38:13;19.30;99.90
2158;DHT22;41972;48.774;9.282;2022-08-19T04:40:41;19.30;99.90
2158;DHT22;41972;48.774;9.282;2022-08-19T04:43:26;19.30;99.90
2158;DHT22;41972;48.774;9.282;2022-08-19T04:45:51;19.10;99.90
2158;DHT22;41972;48.774;9.282;2022-08-19T04:48:17;19.20;99.90
2158;DHT22;41972;48.774;9.282;2022-08-19T04:50:47;19.20;99.90
2158;DHT22;41972;48.774;9.282;2022-08-19T04:53:13;19.30;99.90
2158;DHT22;41972;48.774;9.282;2022-08-19T04:55:41;19.20;99.90
2158;DHT22;41972;48.774;9.282;2022-08-19T04:58:06;19.30;99.90
2158;DHT22;41972;48.774;9.282;2022-08-19T05:00:32;19.30;99.90
2158;DHT22;41972;48.774;9.282;2022-08-19T05:02:58;19.30;99.90
2158;DHT22;41972;48.774;9.282;2022-08-19T05:05:23;19.30;99.90
2158;DHT22;41972;48.774;9.282;2022-08-19T05:07:49;19.40;99.90
2158;DHT22;41972;48.774;9.282;2022-08-19T05:10:15;19.40;99.90
2158;DHT22;41972;48.774;9.282;2022-08-19T05:12:41;19.40;99.90
2158;DHT22;41972;48.774;9.282;2022-08-19T05:15:06;19.40;99.90
2158;DHT22;41972;48.774;9.282;2022-08-19T05:17:34;19.40;99.90
2158;DHT22;41972;48.774;9.282;2022-08-19T05:20:00;19.40;99.90
2158;DHT22;41972;48.774;9.282;2022-08-19T05:22:46;19.50;99.90
2158;DHT22;41972;48.774;9.282;2022-08-19T05:25:16;19.50;99.90
2158;DHT22;41972;48.774;9.282;2022-08-19T05:27:44;19.50;99.90
2158;DHT22;41972;48.774;9.282;2022-08-19T05:30:11;19.50;99.90
2158;DHT22;41972;48.774;9.282;2022-08-19T05:32:37;19.60;99.90
2158;DHT22;41972;48.774;9.282;2022-08-19T05:35:03;19.50;99.90
2158;DHT22;41972;48.774;9.282;2022-08-19T05:37:29;19.40;99.90
2158;DHT22;41972;48.774;9.282;2022-08-19T05:39:55;19.40;99.90
2158;DHT22;41972;48.774;9.282;2022-08-19T05:42:21;19.50;99.90
2158;DHT22;41972;48.774;9.282;2022-08-19T05:44:48;19.50;99.90
2158;DHT22;41972;48.774;9.282;2022-08-19T05:47:14;19.50;99.90
2158;DHT22;41972;48.774;9.282;2022-08-19T05:49:41;19.60;99.90
2158;DHT22;41972;48.774;9.282;2022-08-19T05:52:10;19.40;99.90
2158;DHT22;41972;48.774;9.282;2022-08-19T05:54:40;19.50;99.90
2158;DHT22;41972;48.774;9.282;2022-08-19T05:57:07;19.60;99.90
2158;DHT22;41972;48.774;9.282;2022-08-19T05:59:33;19.60;99.90
2158;DHT22;41972;48.774;9.282;2022-08-19T06:02:01;19.60;99.90
2158;DHT22;41972;48.774;9.282;2022-08-19T06:04:27;19.50;99.90
2158;DHT22;41972;48.774;9.282;2022-08-19T06:06:55;19.40;99.90
2158;DHT22;41972;48.774;9.282;2022-08-19T06:09:22;19.30;99.90
2158;DHT22;41972;48.774;9.282;2022-08-19T06:11:53;19.20;99.90
2158;DHT22;41972;48.774;9.282;2022-08-19T06:14:22;19.10;99.90
2158;DHT22;41972;48.774;9.282;2022-08-19T06:16:48;19.20;99.90
2158;DHT22;41972;48.774;9.282;2022-08-19T06:19:16;19.10;99.90
2158;DHT22;41972;48.774;9.282;2022-08-19T06:21:44;19.10;99.90
2158;DHT22;41972;48.774;9.282;2022-08-19T06:24:16;19.20;99.90
2158;DHT22;41972;48.774;9.282;2022-08-19T06:26:45;19.10;99.90
2158;DHT22;41972;48.774;9.282;2022-08-19T06:29:13;19.00;99.90
2158;DHT22;41972;48.774;9.282;2022-08-19T06:31:46;19.10;99.90
2158;DHT22;41972;48.774;9.282;2022-08-19T06:34:12;19.20;99.90
2158;DHT22;41972;48.774;9.282;2022-08-19T06:36:41;19.20;99.90
2158;DHT22;41972;48.774;9.282;2022-08-19T06:39:12;19.30;99.90
2158;DHT22;41972;48.774;9.282;2022-08-19T06:41:41;19.30;99.90
2158;DHT22;41972;48.774;9.282;2022-08-19T06:44:07;19.20;99.90
2158;DHT22;41972;48.774;9.282;2022-08-19T06:46:33;19.20;99.90
2158;DHT22;41972;48.774;9.282;2022-08-19T06:48:59;19.30;99.90
2158;DHT22;41972;48.774;9.282;2022-08-19T06:51:26;19.50;99.90
2158;DHT22;41972;48.774;9.282;2022-08-19T06:53:53;19.30;99.90
2158;DHT22;41972;48.774;9.282;2022-08-19T06:56:22;19.40;99.90
2158;DHT22;41972;48.774;9.282;2022-08-19T06:58:50;19.50;99.90
2158;DHT22;41972;48.774;9.282;2022-08-19T07:01:19;19.50;99.90
2158;DHT22;41972;48.774;9.282;2022-08-19T07:03:45;19.40;99.90
2158;DHT22;41972;48.774;9.282;2022-08-19T07:06:14;19.30;99.90
2158;DHT22;41972;48.774;9.282;2022-08-19T07:08:43;19.60;99.90
2158;DHT22;41972;48.774;9.282;2022-08-19T07:11:10;19.50;99.90
2158;DHT22;41972;48.774;9.282;2022-08-19T07:13:39;19.30;99.90
2158;DHT22;41972;48.774;9.282;2022-08-19T07:16:10;19.30;99.90
2158;DHT22;41972;48.774;9.282;2022-08-19T07:18:37;19.60;99.90
2158;DHT22;41972;48.774;9.282;2022-08-19T07:21:04;19.70;99.90
2158;DHT22;41972;48.774;9.282;2022-08-19T07:23:31;19.80;99.90
2158;DHT22;41972;48.774;9.282;2022-08-19T07:25:56;19.70;99.90
2158;DHT22;41972;48.774;9.282;2022-08-19T07:28:22;19.90;99.90
2158;DHT22;41972;48.774;9.282;2022-08-19T07:30:48;19.50;99.90
2158;DHT22;41972;48.774;9.282;2022-08-19T07:33:15;19.50;99.90
2158;DHT22;41972;48.774;9.282;2022-08-19T07:35:41;19.70;99.90
2158;DHT22;41972;48.774;9.282;2022-08-19T07:38:07;19.30;99.90
2158;DHT22;41972;48.774;9.282;2022-08-19T07:40:32;19.20;99.90
2158;DHT22;41972;48.774;9.282;2022-08-19T07:42:58;19.30;99.90
2158;DHT22;41972;48.774;9.282;2022-08-19T07:45:24;19.30;99.90
2158;DHT22;41972;48.774;9.282;2022-08-19T07:47:49;19.30;99.90
2158;DHT22;41972;48.774;9.282;2022-08-19T07:50:16;19.30;99.90
2158;DHT22;41972;48.774;9.282;2022-08-19T07:52:43;19.20;99.90
2158;DHT22;41972;48.774;9.282;2022-08-19T07:55:10;19.40;99.90
2158;DHT22;41972;48.774;9.282;2022-08-19T07:57:35;19.40;99.90
2158;DHT22;41972;48.774;9.282;2022-08-19T08:00:02;19.30;99.90
2158;DHT22;41972;48.774;9.282;2022-08-19T08:02:27;19.50;99.90
2158;DHT22;41972;48.774;9.282;2022-08-19T08:04:53;19.40;99.90
2158;DHT22;41972;48.774;9.282;2022-08-19T08:07:37;19.30;99.90
2158;DHT22;41972;48.774;9.282;2022-08-19T08:10:21;19.20;99.90
2158;DHT22;41972;48.774;9.282;2022-08-19T08:12:47;19.30;99.90
2158;DHT22;41972;48.774;9.282;2022-08-19T08:15:16;19.20;99.90
2158;DHT22;41972;48.774;9.282;2022-08-19T08:17:42;19.70;99.90
2158;DHT22;41972;48.774;9.282;2022-08-19T08:20:08;19.10;99.90
2158;DHT22;41972;48.774;9.282;2022-08-19T08:22:34;19.00;99.90
2158;DHT22;41972;48.774;9.282;2022-08-19T08:25:38;19.30;99.90
2158;DHT22;41972;48.774;9.282;2022-08-19T08:28:04;19.20;99.90
2158;DHT22;41972;48.774;9.282;2022-08-19T08:30:30;18.90;99.90
2158;DHT22;41972;48.774;9.282;2022-08-19T08:32:58;19.10;99.90
2158;DHT22;41972;48.774;9.282;2022-08-19T08:35:24;19.20;99.90
2158;DHT22;41972;48.774;9.282;2022-08-19T08:37:52;19.20;99.90
2158;DHT22;41972;48.774;9.282;2022-08-19T08:40:33;19.40;99.90
2158;DHT22;41972;48.774;9.282;2022-08-19T08:43:09;19.40;99.90
2158;DHT22;41972;48.774;9.282;2022-08-19T08:45:41;19.80;99.90
2158;DHT22;41972;48.774;9.282;2022-08-19T08:48:34;19.60;99.90
2158;DHT22;41972;48.774;9.282;2022-08-19T08:51:04;19.90;99.90
2158;DHT22;41972;48.774;9.282;2022-08-19T08:53:31;20.40;99.90
2158;DHT22;41972;48.774;9.282;2022-08-19T08:55:58;20.80;99.90
2158;DHT22;41972;48.774;9.282;2022-08-19T08:58:31;21.00;99.90
2158;DHT22;41972;48.774;9.282;2022-08-19T09:00:58;21.30;99.90
2158;DHT22;41972;48.774;9.282;2022-08-19T09:03:27;21.40;99.90
2158;DHT22;41972;48.774;9.282;2022-08-19T09:06:36;20.80;99.90
2158;DHT22;41972;48.774;9.282;2022-08-19T09:12:01;20.00;99.90
2158;DHT22;41972;48.774;9.282;2022-08-19T09:17:16;20.10;99.90
2158;DHT22;41972;48.774;9.282;2022-08-19T09:19:54;20.10;99.90
2158;DHT22;41972;48.774;9.282;2022-08-19T09:22:20;19.90;99.90
2158;DHT22;41972;48.774;9.282;2022-08-19T09:24:50;19.70;99.90
2158;DHT22;41972;48.774;9.282;2022-08-19T09:27:18;19.80;99.90
2158;DHT22;41972;48.774;9.282;2022-08-19T09:29:44;19.80;99.90
2158;DHT22;41972;48.774;9.282;2022-08-19T09:32:09;19.80;99.90
2158;DHT22;41972;48.774;9.282;2022-08-19T09:34:35;19.60;99.90
2158;DHT22;41972;48.774;9.282;2022-08-19T09:37:01;19.50;99.90
2158;DHT22;41972;48.774;9.282;2022-08-19T09:39:27;19.70;99.90
2158;DHT22;41972;48.774;9.282;2022-08-19T09:41:53;19.90;99.90
2158;DHT22;41972;48.774;9.282;2022-08-19T09:44:18;19.90;99.90
2158;DHT22;41972;48.774;9.282;2022-08-19T09:46:45;20.00;99.90
2158;DHT22;41972;48.774;9.282;2022-08-19T09:49:16;20.10;99.90
2158;DHT22;41972;48.774;9.282;2022-08-19T09:51:51;20.30;99.90
2158;DHT22;41972;48.774;9.282;2022-08-19T09:54:22;20.40;99.90
2158;DHT22;41972;48.774;9.282;2022-08-19T09:56:48;20.40;99.90
2158;DHT22;41972;48.774;9.282;2022-08-19T09:59:13;20.50;99.90
2158;DHT22;41972;48.774;9.282;2022-08-19T10:01:39;20.70;99.90
2158;DHT22;41972;48.774;9.282;2022-08-19T10:04:05;20.70;99.90
2158;DHT22;41972;48.774;9.282;2022-08-19T10:06:35;20.60;99.90
2158;DHT22;41972;48.774;9.282;2022-08-19T10:09:02;20.30;99.90
2158;DHT22;41972;48.774;9.282;2022-08-19T10:11:30;20.40;99.90
2158;DHT22;41972;48.774;9.282;2022-08-19T10:13:56;20.40;99.90
2158;DHT22;41972;48.774;9.282;2022-08-19T10:16:23;20.50;99.90
2158;DHT22;41972;48.774;9.282;2022-08-19T10:18:50;20.60;99.90
2158;DHT22;41972;48.774;9.282;2022-08-19T10:21:22;20.30;99.90
2158;DHT22;41972;48.774;9.282;2022-08-19T10:23:49;20.30;99.90
2158;DHT22;41972;48.774;9.282;2022-08-19T10:26:19;20.40;99.90
2158;DHT22;41972;48.774;9.282;2022-08-19T10:28:44;20.20;99.90
2158;DHT22;41972;48.774;9.282;2022-08-19T10:31:14;19.80;99.90
2158;DHT22;41972;48.774;9.282;2022-08-19T10:33:40;19.40;99.90
2158;DHT22;41972;48.774;9.282;2022-08-19T10:36:19;19.30;99.90
2158;DHT22;41972;48.774;9.282;2022-08-19T10:38:47;19.50;99.90
2158;DHT22;41972;48.774;9.282;2022-08-19T10:41:17;19.50;99.90
2158;DHT22;41972;48.774;9.282;2022-08-19T10:43:43;19.50;99.90
2158;DHT22;41972;48.774;9.282;2022-08-19T10:46:13;19.50;99.90
2158;DHT22;41972;48.774;9.282;2022-08-19T10:48:40;19.60;99.90
2158;DHT22;41972;48.774;9.282;2022-08-19T10:51:06;19.60;99.90
2158;DHT22;41972;48.774;9.282;2022-08-19T10:53:51;19.30;99.90
2158;DHT22;41972;48.774;9.282;2022-08-19T10:56:17;19.40;99.90
2158;DHT22;41972;48.774;9.282;2022-08-19T10:59:03;19.70;99.90
2158;DHT22;41972;48.774;9.282;2022-08-19T11:01:30;19.60;99.90
2158;DHT22;41972;48.774;9.282;2022-08-19T11:03:57;19.80;99.90
2158;DHT22;41972;48.774;9.282;2022-08-19T11:06:23;19.90;99.90
2158;DHT22;41972;48.774;9.282;2022-08-19T11:08:53;19.80;99.90
2158;DHT22;41972;48.774;9.282;2022-08-19T11:11:20;19.60;99.90
2158;DHT22;41972;48.774;9.282;2022-08-19T11:13:46;19.50;99.90
2158;DHT22;41972;48.774;9.282;2022-08-19T11:16:14;19.40;99.90
2158;DHT22;41972;48.774;9.282;2022-08-19T11:18:44;19.30;99.90
2158;DHT22;41972;48.774;9.282;2022-08-19T11:21:21;19.10;99.90
2158;DHT22;41972;48.774;9.282;2022-08-19T11:23:50;19.00;99.90
2158;DHT22;41972;48.774;9.282;2022-08-19T11:26:16;19.10;99.90
2158;DHT22;41972;48.774;9.282;2022-08-19T11:28:42;19.10;99.90
2158;DHT22;41972;48.774;9.282;2022-08-19T11:31:12;19.10;99.90
2158;DHT22;41972;48.774;9.282;2022-08-19T11:33:39;19.10;99.90
2158;DHT22;41972;48.774;9.282;2022-08-19T11:36:05;19.40;99.90
2158;DHT22;41972;48.774;9.282;2022-08-19T11:38:31;19.80;99.90
2158;DHT22;41972;48.774;9.282;2022-08-19T11:41:01;20.10;99.90
2158;DHT22;41972;48.774;9.282;2022-08-19T11:43:28;20.50;99.90
2158;DHT22;41972;48.774;9.282;2022-08-19T11:45:54;20.30;99.90
2158;DHT22;41972;48.774;9.282;2022-08-19T11:48:21;20.30;99.90
2158;DHT22;41972;48.774;9.282;2022-08-19T11:50:50;20.10;99.90
2158;DHT22;41972;48.774;9.282;2022-08-19T11:53:18;19.90;99.90
2158;DHT22;41972;48.774;9.282;2022-08-19T11:55:45;19.90;99.90
2158;DHT22;41972;48.774;9.282;2022-08-19T11:58:12;19.80;99.90
2158;DHT22;41972;48.774;9.282;2022-08-19T12:00:39;19.60;99.90
2158;DHT22;41972;48.774;9.282;2022-08-19T12:03:05;19.70;99.90
2158;DHT22;41972;48.774;9.282;2022-08-19T12:05:31;19.90;99.90
2158;DHT22;41972;48.774;9.282;2022-08-19T12:07:57;19.70;99.90
2158;DHT22;41972;48.774;9.282;2022-08-19T12:10:23;19.60;99.90
2158;DHT22;41972;48.774;9.282;2022-08-19T12:12:48;19.90;99.90
2158;DHT22;41972;48.774;9.282;2022-08-19T12:15:15;19.80;99.90
2158;DHT22;41972;48.774;9.282;2022-08-19T12:17:41;19.60;99.90
2158;DHT22;41972;48.774;9.282;2022-08-19T12:20:09;19.70;99.90
2158;DHT22;41972;48.774;9.282;2022-08-19T12:22:36;19.80;99.90
2158;DHT22;41972;48.774;9.282;2022-08-19T12:25:03;20.00;99.90
2158;DHT22;41972;48.774;9.282;2022-08-19T12:27:29;20.00;99.90
2158;DHT22;41972;48.774;9.282;2022-08-19T12:29:54;20.00;99.90
2158;DHT22;41972;48.774;9.282;2022-08-19T12:32:20;19.70;99.90
2158;DHT22;41972;48.774;9.282;2022-08-19T12:34:46;19.70;99.90
2158;DHT22;41972;48.774;9.282;2022-08-19T12:37:13;20.00;99.90
2158;DHT22;41972;48.774;9.282;2022-08-19T12:39:41;19.50;99.90
2158;DHT22;41972;48.774;9.282;2022-08-19T12:42:08;19.50;99.90
2158;DHT22;41972;48.774;9.282;2022-08-19T12:44:35;19.80;99.90
2158;DHT22;41972;48.774;9.282;2022-08-19T12:47:01;19.90;99.90
2158;DHT22;41972;48.774;9.282;2022-08-19T12:49:30;20.30;99.90
2158;DHT22;41972;48.774;9.282;2022-08-19T12:51:56;21.20;99.90
2158;DHT22;41972;48.774;9.282;2022-08-19T12:54:23;20.40;99.90
2158;DHT22;41972;48.774;9.282;2022-08-19T12:56:49;20.30;99.90
2158;DHT22;41972;48.774;9.282;2022-08-19T12:59:14;20.10;99.90
2158;DHT22;41972;48.774;9.282;2022-08-19T13:01:44;20.10;99.90
2158;DHT22;41972;48.774;9.282;2022-08-19T13:04:10;20.30;99.90
2158;DHT22;41972;48.774;9.282;2022-08-19T13:06:36;20.00;99.90
2158;DHT22;41972;48.774;9.282;2022-08-19T13:09:03;19.60;99.90
2158;DHT22;41972;48.774;9.282;2022-08-19T13:11:28;19.60;99.90
2158;DHT22;41972;48.774;9.282;2022-08-19T13:13:58;19.40;99.90
2158;DHT22;41972;48.774;9.282;2022-08-19T13:16:24;19.20;99.90
2158;DHT22;41972;48.774;9.282;2022-08-19T13:18:50;19.20;99.90
2158;DHT22;41972;48.774;9.282;2022-08-19T13:21:18;19.30;99.90
2158;DHT22;41972;48.774;9.282;2022-08-19T13:23:45;19.10;99.90
2158;DHT22;41972;48.774;9.282;2022-08-19T13:26:12;18.90;99.90
2158;DHT22;41972;48.774;9.282;2022-08-19T13:28:39;18.80;99.90
2158;DHT22;41972;48.774;9.282;2022-08-19T13:31:25;18.70;99.90
2158;DHT22;41972;48.774;9.282;2022-08-19T13:34:10;18.80;99.90
2158;DHT22;41972;48.774;9.282;2022-08-19T13:36:36;18.80;99.90
2158;DHT22;41972;48.774;9.282;2022-08-19T13:39:04;18.70;99.90
2158;DHT22;41972;48.774;9.282;2022-08-19T13:41:30;18.70;99.90
2158;DHT22;41972;48.774;9.282;2022-08-19T13:43:56;18.60;99.90
2158;DHT22;41972;48.774;9.282;2022-08-19T13:46:22;18.60;99.90
2158;DHT22;41972;48.774;9.282;2022-08-19T13:48:47;19.00;99.90
2158;DHT22;41972;48.774;9.282;2022-08-19T13:51:15;18.50;99.90
2158;DHT22;41972;48.774;9.282;2022-08-19T13:53:41;18.50;99.90
2158;DHT22;41972;48.774;9.282;2022-08-19T13:56:14;18.60;99.90
2158;DHT22;41972;48.774;9.282;2022-08-19T13:58:40;18.60;99.90
2158;DHT22;41972;48.774;9.282;2022-08-19T14:01:06;18.60;99.90
2158;DHT22;41972;48.774;9.282;2022-08-19T14:03:32;18.70;99.90
2158;DHT22;41972;48.774;9.282;2022-08-19T14:05:58;18.70;99.90
2158;DHT22;41972;48.774;9.282;2022-08-19T14:08:25;18.80;99.90
2158;DHT22;41972;48.774;9.282;2022-08-19T14:10:53;18.80;99.90
2158;DHT22;41972;48.774;9.282;2022-08-19T14:13:21;18.90;99.90
2158;DHT22;41972;48.774;9.282;2022-08-19T14:15:47;18.80;99.90
2158;DHT22;41972;48.774;9.282;2022-08-19T14:18:14;18.80;99.90
2158;DHT22;41972;48.774;9.282;2022-08-19T14:20:40;18.90;99.90
2158;DHT22;41972;48.774;9.282;2022-08-19T14:23:06;19.10;99.90
2158;DHT22;41972;48.774;9.282;2022-08-19T14:25:32;19.00;99.90
2158;DHT22;41972;48.774;9.282;2022-08-19T14:28:00;19.20;99.90
2158;DHT22;41972;48.774;9.282;2022-08-19T14:30:28;19.20;99.90
2158;DHT22;41972;48.774;9.282;2022-08-19T14:32:59;19.10;99.90
2158;DHT22;41972;48.774;9.282;2022-08-19T14:35:27;19.10;99.90
2158;DHT22;41972;48.774;9.282;2022-08-19T14:37:53;19.20;99.90
2158;DHT22;41972;48.774;9.282;2022-08-19T14:40:22;19.20;99.90
2158;DHT22;41972;48.774;9.282;2022-08-19T14:42:52;19.20;99.90
2158;DHT22;41972;48.774;9.282;2022-08-19T14:45:25;19.10;99.90
2158;DHT22;41972;48.774;9.282;2022-08-19T14:47:50;19.20;99.90
2158;DHT22;41972;48.774;9.282;2022-08-19T14:50:16;19.30;99.90
2158;DHT22;41972;48.774;9.282;2022-08-19T14:52:41;19.40;99.90
2158;DHT22;41972;48.774;9.282;2022-08-19T14:55:08;19.50;99.90
2158;DHT22;41972;48.774;9.282;2022-08-19T14:57:34;19.60;99.90
2158;DHT22;41972;48.774;9.282;2022-08-19T15:00:00;19.50;99.90
2158;DHT22;41972;48.774;9.282;2022-08-19T15:02:25;19.70;99.90
2158;DHT22;41972;48.774;9.282;2022-08-19T15:04:51;19.40;99.90
2158;DHT22;41972;48.774;9.282;2022-08-19T15:07:17;19.30;99.90
2158;DHT22;41972;48.774;9.282;2022-08-19T15:09:43;19.20;99.90
2158;DHT22;41972;48.774;9.282;2022-08-19T15:12:08;19.30;99.90
2158;DHT22;41972;48.774;9.282;2022-08-19T15:14:36;19.30;99.90
2158;DHT22;41972;48.774;9.282;2022-08-19T15:17:03;19.30;99.90
2158;DHT22;41972;48.774;9.282;2022-08-19T15:19:31;19.30;99.90
2158;DHT22;41972;48.774;9.282;2022-08-19T15:21:58;19.30;99.90
2158;DHT22;41972;48.774;9.282;2022-08-19T15:24:24;19.40;99.90
2158;DHT22;41972;48.774;9.282;2022-08-19T15:26:51;19.50;99.90
2158;DHT22;41972;48.774;9.282;2022-08-19T15:29:16;19.60;99.90
2158;DHT22;41972;48.774;9.282;2022-08-19T15:31:42;19.70;99.90
2158;DHT22;41972;48.774;9.282;2022-08-19T15:34:08;19.80;99.90
2158;DHT22;41972;48.774;9.282;2022-08-19T15:36:34;19.80;99.90
2158;DHT22;41972;48.774;9.282;2022-08-19T15:39:01;19.60;99.90
2158;DHT22;41972;48.774;9.282;2022-08-19T15:41:28;19.70;99.90
2158;DHT22;41972;48.774;9.282;2022-08-19T15:44:02;19.70;99.90
2158;DHT22;41972;48.774;9.282;2022-08-19T15:46:30;19.70;99.90
2158;DHT22;41972;48.774;9.282;2022-08-19T15:48:58;19.50;99.90
2158;DHT22;41972;48.774;9.282;2022-08-19T15:51:24;19.60;99.90
2158;DHT22;41972;48.774;9.282;2022-08-19T15:53:51;19.60;99.90
2158;DHT22;41972;48.774;9.282;2022-08-19T15:56:16;19.50;99.90
2158;DHT22;41972;48.774;9.282;2022-08-19T15:58:42;19.40;99.90